Huvudsida
METAR-TAF:

METAR-TAF

Flygplatser :

Wrocław-Copernicus flygplats

Wrocław, Polen

latitud: 51-06N, longitud: 016-53E, höjd: 120 m

Aktuellt väderrapport

Denna rapport gjordes för 30 minuter sedan, klockan 14:30 UTC
Vind 8 kt från syd/sydost
Temperatur 22°C
Fuktighet 38%
Tryck 1019 hPa
Sikt 10 km eller mer
Inga moln under 1 500 m eller inga cumulonimbus

METAR: EPWR 161430Z 16008KT CAVOK 22/07 Q1019

Tid: 17:00 (15:00 UTC)

Väderprognos

Denna rapport gjordes för 30 minuter sedan, klockan 14:30 UTC
Prognos gäller från 16 kl. 15 UTC till 17 kl. 15 UTC
Vind 10 kt från syd
Sikt 10 km eller mer
Inga moln under 1 500 m eller inga cumulonimbus
Blir
från 16 kl. 23 UTC till 17 kl. 02 UTC
Vind 5 kt från ost/sydost

TAF: EPWR 161430Z 1615/1715 18010KT CAVOK BECMG 1623/1702 12005KT

Aktuella väderrapporter och prognoser från 4000 flygplatser (METAR- och TAF-rapporter).

De tillgängliga stationerna syns som gula och röda prickar på kartan.

För musen över prickarna för att se namnen på stationerna.

Klicka sedan för att få väderrapporter och prognoser.

För att ändra kartan: Klicka på de gröna knapparna med ett svart kors på för att zooma in; den gröna knappen med ett streck på för att zooma ut; eller på de gröna pilarna för angränsande kartor.


METAR-TAF: